Time;durP1;ratioP1;P1;durP2;ratioP2;P2;SDS_P1;SDS_P2;PMS_P1;PMS_P2;Temp;Humidity;BMP_temperature;BMP_pressure;BME280_temperature;BME280_humidity;BME280_pressure;Samples;Min_cycle;Max_cycle;Signal;HPM_P1;HPM_P2
2022/07/20 00:04:43;;;;;;;4.07;1.10;;;;;;;25.75;43.58;98487.75;15284869;19;20358;-54
2022/07/20 00:15:10;;;;;;;2.75;1.30;;;;;;;25.71;43.06;98477.50;15283415;19;20694;-55
2022/07/20 00:20:15;;;;;;;4.28;1.20;;;;;;;25.65;43.62;98487.63;15266426;19;20017;-58
2022/07/20 00:25:20;;;;;;;3.00;1.20;;;;;;;25.60;43.95;98474.63;15281482;19;20007;-56
2022/07/20 00:30:29;;;;;;;3.22;1.00;;;;;;;25.58;44.06;98484.25;15284318;19;20504;-56
2022/07/20 00:35:34;;;;;;;2.38;1.00;;;;;;;25.51;44.05;98482.50;15280967;19;20011;-61
2022/07/20 00:40:40;;;;;;;3.38;1.30;;;;;;;25.46;44.65;98479.69;15276179;19;20022;-63
2022/07/20 00:45:48;;;;;;;7.38;1.00;;;;;;;25.44;44.38;98481.88;15279830;19;20655;-55
2022/07/20 00:50:53;;;;;;;2.85;1.10;;;;;;;25.41;44.90;98481.53;15269559;19;20022;-63
2022/07/20 00:55:58;;;;;;;2.58;1.00;;;;;;;25.35;44.96;98477.84;15280713;19;20516;-57
2022/07/20 01:01:06;;;;;;;4.47;1.10;;;;;;;25.29;45.35;98478.91;15275600;19;20031;-58
2022/07/20 01:06:11;;;;;;;4.47;1.20;;;;;;;25.20;45.29;98476.59;15281024;19;20014;-62
2022/07/20 01:11:16;;;;;;;3.78;1.08;;;;;;;25.08;46.40;98476.72;15280736;19;20035;-59
2022/07/20 01:16:24;;;;;;;3.78;1.10;;;;;;;24.92;46.93;98481.19;15279370;19;20094;-62
2022/07/20 01:21:32;;;;;;;3.00;1.00;;;;;;;24.82;47.46;98474.69;15267438;19;20362;-59
2022/07/20 01:26:37;;;;;;;2.75;1.00;;;;;;;24.72;47.59;98476.19;15272066;19;20010;-64
2022/07/20 01:31:42;;;;;;;4.55;1.08;;;;;;;24.65;48.20;98471.91;15278825;19;20618;-64
2022/07/20 01:36:50;;;;;;;2.85;1.40;;;;;;;24.58;48.58;98475.69;15276473;19;20503;-63
2022/07/20 01:41:55;;;;;;;2.28;1.00;;;;;;;24.54;48.62;98468.19;15277184;19;20018;-64
2022/07/20 01:47:00;;;;;;;2.90;1.10;;;;;;;24.49;48.28;98477.22;15280738;19;20030;-64
2022/07/20 01:52:08;;;;;;;2.03;0.90;;;;;;;24.49;48.52;98473.59;15277419;19;20019;-64
2022/07/20 01:57:13;;;;;;;3.58;1.10;;;;;;;24.44;48.61;98477.97;15267772;19;20014;-64
2022/07/20 02:02:18;;;;;;;4.30;1.40;;;;;;;24.41;49.19;98475.72;15275658;19;20058;-64
2022/07/20 02:07:26;;;;;;;3.88;1.20;;;;;;;24.40;49.24;98478.72;15280174;19;20074;-64
2022/07/20 02:12:31;;;;;;;2.22;0.90;;;;;;;24.34;49.35;98471.44;15278236;19;20776;-64
2022/07/20 02:17:36;;;;;;;5.07;1.30;;;;;;;24.28;49.21;98471.38;15281828;19;20035;-64
2022/07/20 02:22:44;;;;;;;1.73;1.00;;;;;;;24.26;49.74;98478.19;15273978;19;20393;-64
2022/07/20 02:27:49;;;;;;;3.53;1.02;;;;;;;24.21;49.75;98481.69;15265589;19;20048;-67
2022/07/20 02:32:54;;;;;;;2.95;1.23;;;;;;;24.18;49.33;98481.38;15275648;19;20023;-64
2022/07/20 02:38:01;;;;;;;2.05;1.02;;;;;;;24.15;49.56;98478.03;15274116;19;20057;-64
2022/07/20 02:43:07;;;;;;;2.28;1.10;;;;;;;24.12;50.07;98477.69;15275521;19;20055;-64
2022/07/20 02:48:12;;;;;;;3.85;1.10;;;;;;;24.07;49.61;98472.94;15275781;19;20025;-64
2022/07/20 02:53:20;;;;;;;2.47;1.10;;;;;;;24.04;50.49;98464.34;15276796;19;20520;-64
2022/07/20 02:58:25;;;;;;;3.00;1.20;;;;;;;23.96;50.40;98465.59;15269972;19;20022;-64
2022/07/20 03:03:30;;;;;;;2.63;0.98;;;;;;;23.93;50.88;98469.63;15267531;19;20018;-64
2022/07/20 03:08:37;;;;;;;4.55;1.00;;;;;;;23.93;50.87;98469.63;15275622;19;20044;-64
2022/07/20 03:13:46;;;;;;;2.63;1.10;;;;;;;23.93;51.06;98477.88;15285740;19;20006;-64
2022/07/20 03:18:51;;;;;;;1.63;1.10;;;;;;;23.91;51.14;98474.56;15287895;19;20018;-62
2022/07/20 03:24:00;;;;;;;4.38;1.05;;;;;;;23.89;51.39;98473.97;15287410;19;20035;-61
2022/07/20 03:29:05;;;;;;;2.83;1.05;;;;;;;23.86;51.53;98479.94;15289460;19;20581;-62
2022/07/20 03:34:10;;;;;;;2.50;1.10;;;;;;;23.85;51.42;98483.78;15276058;19;20030;-62
2022/07/20 03:39:18;;;;;;;1.67;1.00;;;;;;;23.83;52.14;98481.28;15286570;19;20018;-63
2022/07/20 03:44:23;;;;;;;2.97;1.00;;;;;;;23.78;52.38;98483.13;15284659;19;20032;-62
2022/07/20 03:49:28;;;;;;;2.90;1.20;;;;;;;23.74;52.61;98487.44;15285291;19;20377;-63
2022/07/20 03:54:36;;;;;;;2.55;1.20;;;;;;;23.73;52.67;98491.25;15285340;19;20043;-62
2022/07/20 03:59:43;;;;;;;1.73;1.08;;;;;;;23.72;52.58;98490.44;15280492;19;20467;-61
2022/07/20 04:04:48;;;;;;;1.10;0.88;;;;;;;23.68;53.23;98498.34;15272007;19;20019;-61
2022/07/20 04:09:56;;;;;;;3.92;1.10;;;;;;;23.67;53.86;98499.44;15285423;19;20018;-62
2022/07/20 04:15:01;;;;;;;1.55;0.90;;;;;;;23.69;53.80;98505.53;15283061;19;20014;-61
2022/07/20 04:20:08;;;;;;;2.13;1.13;;;;;;;23.69;54.13;98507.41;15282963;19;20015;-61
2022/07/20 04:25:16;;;;;;;3.92;1.17;;;;;;;23.67;54.12;98512.31;15282088;19;20011;-61
2022/07/20 04:30:22;;;;;;;2.42;1.00;;;;;;;23.66;54.81;98528.00;15284358;19;20353;-62
2022/07/20 04:35:27;;;;;;;2.72;1.10;;;;;;;23.67;54.56;98534.31;15275851;19;20477;-62
2022/07/20 04:40:35;;;;;;;1.98;1.00;;;;;;;23.67;54.51;98537.94;15273851;19;20026;-64
2022/07/20 04:45:40;;;;;;;1.73;1.00;;;;;;;23.66;55.64;98536.25;15277036;19;20358;-64
2022/07/20 04:50:46;;;;;;;2.40;1.02;;;;;;;23.67;55.79;98529.69;15284488;19;20039;-63
2022/07/20 04:55:54;;;;;;;3.03;1.10;;;;;;;23.75;55.17;98535.84;15281553;19;20014;-63
2022/07/20 05:00:59;;;;;;;5.22;1.30;;;;;;;23.80;55.89;98530.47;15279058;19;20416;-63
2022/07/20 05:06:04;;;;;;;4.95;1.30;;;;;;;23.85;56.85;98527.81;15276786;19;20471;-64
2022/07/20 05:11:12;;;;;;;2.50;1.10;;;;;;;23.91;56.53;98535.09;15268212;19;20338;-63
2022/07/20 05:16:17;;;;;;;1.98;1.00;;;;;;;23.98;56.69;98529.47;15278935;19;20039;-64
2022/07/20 05:21:22;;;;;;;4.80;1.20;;;;;;;24.05;56.69;98541.16;15274334;19;20015;-64
2022/07/20 05:26:30;;;;;;;3.10;0.93;;;;;;;24.15;57.19;98537.75;15274441;19;20400;-63
2022/07/20 05:31:35;;;;;;;4.15;1.15;;;;;;;24.25;57.14;98537.09;15277167;19;20010;-64
2022/07/20 05:36:40;;;;;;;2.53;1.00;;;;;;;24.35;57.43;98525.44;15273202;19;20011;-65
2022/07/20 05:41:48;;;;;;;3.28;1.13;;;;;;;24.49;56.12;98535.03;15263030;19;20479;-65
2022/07/20 05:46:52;;;;;;;2.90;1.00;;;;;;;24.58;55.79;98530.78;15280659;19;20364;-65
2022/07/20 05:51:57;;;;;;;3.15;1.02;;;;;;;24.72;54.75;98530.47;15277779;19;20691;-64
2022/07/20 05:57:05;;;;;;;2.33;1.10;;;;;;;24.86;55.59;98531.81;15276408;19;20018;-65
2022/07/20 06:02:17;;;;;;;3.00;0.88;;;;;;;25.02;56.10;98529.25;15272218;19;20021;-63
2022/07/20 06:07:22;;;;;;;2.00;0.93;;;;;;;25.15;55.90;98522.56;15278646;19;20014;-63
2022/07/20 06:12:30;;;;;;;3.30;1.00;;;;;;;25.29;54.43;98520.25;15269798;19;20511;-64
2022/07/20 06:17:37;;;;;;;2.13;1.00;;;;;;;25.45;53.65;98526.84;15277036;19;20018;-65
2022/07/20 06:22:44;;;;;;;5.07;1.00;;;;;;;25.60;52.69;98523.44;15269477;19;20042;-65
2022/07/20 06:27:51;;;;;;;1.48;0.90;;;;;;;25.74;52.66;98530.22;15277365;19;20043;-64
2022/07/20 06:32:56;;;;;;;4.30;1.10;;;;;;;25.89;53.41;98525.97;15275510;19;20031;-65
2022/07/20 06:38:01;;;;;;;2.25;1.00;;;;;;;26.01;52.75;98532.19;15251610;19;20015;-62
2022/07/20 06:43:09;;;;;;;3.90;0.90;;;;;;;26.21;52.96;98536.25;15270972;19;20038;-66
2022/07/20 06:48:14;;;;;;;2.65;1.00;;;;;;;26.37;51.75;98537.22;15269675;19;20010;-63
2022/07/20 06:53:19;;;;;;;2.25;0.98;;;;;;;26.57;51.54;98539.34;15290408;19;20022;-62
2022/07/20 06:58:29;;;;;;;3.45;1.00;;;;;;;26.69;51.76;98533.66;15288392;19;20014;-64
2022/07/20 07:03:34;;;;;;;5.07;0.90;;;;;;;26.93;51.10;98536.88;15287422;19;20007;-63
2022/07/20 07:08:40;;;;;;;2.78;0.90;;;;;;;27.10;49.60;98533.94;15289797;19;20031;-65
2022/07/20 07:13:48;;;;;;;2.45;0.90;;;;;;;27.31;49.66;98529.38;15288352;19;20400;-63
2022/07/20 07:18:53;;;;;;;2.80;1.00;;;;;;;27.51;48.98;98522.28;15275346;19;20475;-63
2022/07/20 07:23:59;;;;;;;3.35;0.98;;;;;;;27.71;49.03;98521.53;15289800;19;20027;-63
2022/07/20 07:29:07;;;;;;;2.05;0.80;;;;;;;27.96;48.42;98526.31;15287015;19;20095;-64
2022/07/20 07:34:13;;;;;;;1.42;0.80;;;;;;;28.27;47.11;98506.16;15287659;19;20053;-60
2022/07/20 07:39:18;;;;;;;3.50;0.77;;;;;;;28.63;46.66;98508.13;15289669;19;20018;-62
2022/07/20 07:44:27;;;;;;;3.38;0.90;;;;;;;28.90;45.49;98505.06;15284410;19;20030;-65
2022/07/20 07:49:32;;;;;;;4.05;0.70;;;;;;;29.25;43.87;98502.47;15274687;19;20014;-63
2022/07/20 07:54:37;;;;;;;2.65;0.80;;;;;;;29.68;44.03;98494.56;15284459;19;20010;-63
2022/07/20 07:59:45;;;;;;;1.83;0.88;;;;;;;30.03;42.01;98501.06;15283063;19;20014;-63
2022/07/20 08:04:50;;;;;;;3.08;1.08;;;;;;;30.30;40.54;98491.38;15283307;19;20007;-63
2022/07/20 08:09:55;;;;;;;2.03;1.00;;;;;;;30.64;40.44;98486.97;15284663;19;20018;-64
2022/07/20 08:15:04;;;;;;;2.17;0.70;;;;;;;30.99;38.39;98491.31;15277854;19;20390;-64
2022/07/20 08:20:10;;;;;;;2.58;0.70;;;;;;;31.30;37.00;98477.13;15280464;19;20225;-64
2022/07/20 08:25:15;;;;;;;2.83;0.80;;;;;;;31.60;36.61;98480.63;15269642;19;20013;-61
2022/07/20 08:30:23;;;;;;;2.72;0.60;;;;;;;31.81;36.32;98472.03;15282055;19;20027;-63
2022/07/20 08:35:49;;;;;;;3.85;0.75;;;;;;;32.11;35.22;98472.69;15280791;19;20018;-65
2022/07/20 08:40:54;;;;;;;4.35;0.85;;;;;;;32.37;33.94;98466.72;15279822;19;20341;-65
2022/07/20 08:46:02;;;;;;;2.38;0.77;;;;;;;32.45;33.17;98474.38;15281238;19;20022;-64
2022/07/20 08:51:08;;;;;;;1.83;0.73;;;;;;;32.54;33.85;98468.94;15282668;19;20039;-64
2022/07/20 08:56:14;;;;;;;4.25;0.90;;;;;;;32.82;33.86;98467.06;15268903;19;20089;-65
2022/07/20 09:01:22;;;;;;;4.38;1.00;;;;;;;32.98;33.25;98464.78;15278658;19;20455;-63
2022/07/20 09:06:31;;;;;;;2.05;0.90;;;;;;;33.01;32.40;98460.56;15277838;19;20038;-63
2022/07/20 09:11:36;;;;;;;4.30;1.00;;;;;;;33.21;32.07;98461.31;15278409;19;20018;-62
2022/07/20 09:16:46;;;;;;;2.45;0.90;;;;;;;33.27;31.69;98463.69;15276592;19;20018;-64
2022/07/20 09:21:52;;;;;;;4.93;0.90;;;;;;;33.46;30.29;98463.56;15279433;19;20010;-63
2022/07/20 09:27:06;;;;;;;4.32;0.70;;;;;;;33.53;30.98;98454.75;15269046;19;20074;-61
2022/07/20 09:32:14;;;;;;;2.78;0.77;;;;;;;33.57;29.97;98454.97;15276923;19;20082;-63
2022/07/20 09:37:19;;;;;;;3.55;0.88;;;;;;;33.68;30.51;98445.22;15278388;19;20022;-63
2022/07/20 09:42:38;;;;;;;2.25;0.80;;;;;;;33.79;30.38;98441.06;15274332;19;20014;-63
2022/07/20 09:48:03;;;;;;;6.22;0.90;;;;;;;33.93;29.07;98438.25;15278054;19;20021;-62
2022/07/20 09:53:09;;;;;;;3.75;1.10;;;;;;;34.13;29.96;98449.25;15275673;19;20137;-62
2022/07/20 09:58:14;;;;;;;7.35;1.00;;;;;;;34.20;30.13;98436.47;15268450;19;20074;-62
2022/07/20 10:03:22;;;;;;;4.82;1.00;;;;;;;34.32;29.60;98441.47;15272176;19;20038;-65
2022/07/20 10:08:27;;;;;;;3.53;0.88;;;;;;;34.53;29.31;98424.19;15276372;19;20728;-62
2022/07/20 10:13:33;;;;;;;1.67;0.90;;;;;;;34.64;28.23;98438.75;15275449;19;20043;-64
2022/07/20 10:18:41;;;;;;;1.80;0.80;;;;;;;34.82;28.67;98437.66;15274197;19;20014;-63
2022/07/20 10:23:46;;;;;;;3.53;1.00;;;;;;;35.02;28.01;98425.09;15281697;19;20015;-64
2022/07/20 10:29:01;;;;;;;3.03;0.80;;;;;;;35.21;27.05;98432.44;15290115;19;20038;-64
2022/07/20 10:34:09;;;;;;;3.10;1.05;;;;;;;35.28;26.37;98423.56;15278245;19;20337;-64
2022/07/20 10:39:43;;;;;;;2.78;0.90;;;;;;;35.34;25.64;98422.25;15289360;19;20027;-64
2022/07/20 10:44:48;;;;;;;2.63;0.88;;;;;;;35.36;25.39;98405.94;15287751;19;20033;-63
2022/07/20 10:50:07;;;;;;;3.53;0.98;;;;;;;35.44;25.73;98407.94;15289502;19;20014;-64
2022/07/20 10:55:47;;;;;;;3.22;0.90;;;;;;;35.64;27.42;98406.50;15286790;19;20030;-64
2022/07/20 11:00:55;;;;;;;3.20;1.08;;;;;;;35.84;27.60;98406.97;15288703;19;20038;-64
2022/07/20 11:06:10;;;;;;;3.00;1.00;;;;;;;35.78;25.71;98402.69;15272827;19;20011;-64
2022/07/20 11:11:19;;;;;;;3.72;1.00;;;;;;;35.83;25.63;98408.13;15287243;19;20027;-65
2022/07/20 11:16:28;;;;;;;4.65;1.10;;;;;;;36.15;26.34;98394.78;15281177;19;20007;-65
2022/07/20 11:21:38;;;;;;;6.28;1.00;;;;;;;36.24;26.17;98389.97;15283115;19;20018;-65
2022/07/20 11:26:46;;;;;;;3.78;1.08;;;;;;;36.37;26.74;98387.31;15280469;19;20027;-66
2022/07/20 11:32:08;;;;;;;8.05;1.40;;;;;;;36.52;26.17;98375.56;15287452;19;20018;-64
2022/07/20 11:37:17;;;;;;;3.53;1.00;;;;;;;36.74;25.11;98367.22;15276147;19;20006;-65
2022/07/20 11:42:22;;;;;;;4.40;1.10;;;;;;;36.86;24.92;98362.56;15278553;19;20491;-63
2022/07/20 11:47:27;;;;;;;5.00;1.00;;;;;;;37.08;26.00;98342.97;15285734;19;20049;-64
2022/07/20 11:52:44;;;;;;;3.20;0.90;;;;;;;37.26;25.31;98349.28;15283284;19;20010;-64
2022/07/20 11:57:56;;;;;;;4.57;1.13;;;;;;;37.23;25.14;98348.00;15287183;19;20503;-64
2022/07/20 12:03:02;;;;;;;6.03;1.08;;;;;;;37.42;25.15;98336.31;15281126;19;20015;-63
2022/07/20 12:08:18;;;;;;;4.47;1.08;;;;;;;37.65;23.32;98332.31;15270293;19;20483;-64
2022/07/20 12:13:23;;;;;;;4.68;1.00;;;;;;;37.72;23.80;98333.41;15283029;19;20010;-64
2022/07/20 12:18:41;;;;;;;2.15;0.88;;;;;;;37.97;23.78;98335.53;15283844;19;20107;-63
2022/07/20 12:23:52;;;;;;;3.60;1.10;;;;;;;38.16;23.85;98323.75;15278945;19;20606;-65
2022/07/20 12:28:59;;;;;;;9.68;1.23;;;;;;;38.21;23.52;98315.06;15279433;19;20006;-65
2022/07/20 12:34:11;;;;;;;7.40;1.10;;;;;;;38.40;23.22;98316.56;15279855;19;20094;-65
2022/07/20 12:39:40;;;;;;;4.80;0.82;;;;;;;38.51;22.54;98301.66;15277181;19;20019;-64
2022/07/20 12:44:46;;;;;;;3.40;0.95;;;;;;;38.66;22.88;98314.19;15272633;19;20021;-65
2022/07/20 12:49:52;;;;;;;1.77;0.90;;;;;;;38.83;23.28;98303.91;15282583;19;20495;-65
2022/07/20 12:55:00;;;;;;;5.60;1.05;;;;;;;39.02;22.59;98297.69;15281920;19;20017;-64
2022/07/20 13:00:10;;;;;;;2.85;0.98;;;;;;;39.12;22.71;98299.16;15280759;19;20017;-65
2022/07/20 13:05:15;;;;;;;1.80;0.90;;;;;;;39.38;22.46;98292.31;15276029;19;20018;-64
2022/07/20 13:10:23;;;;;;;2.97;0.90;;;;;;;39.58;22.20;98285.66;15279994;19;20018;-64
2022/07/20 13:15:28;;;;;;;3.05;0.80;;;;;;;39.81;21.93;98287.13;15266165;19;20026;-64
2022/07/20 13:20:43;;;;;;;3.60;0.80;;;;;;;40.04;21.69;98257.13;15279145;19;20583;-65
2022/07/20 13:25:51;;;;;;;1.90;0.73;;;;;;;40.21;20.92;98263.63;15276029;19;20006;-65
2022/07/20 13:30:56;;;;;;;2.65;0.93;;;;;;;40.41;21.65;98258.88;15278430;19;20029;-64
2022/07/20 13:36:02;;;;;;;3.67;0.90;;;;;;;40.64;20.93;98249.78;15275995;19;20475;-65
2022/07/20 13:41:10;;;;;;;2.17;0.80;;;;;;;40.65;20.75;98252.25;15277268;19;20463;-65
2022/07/20 13:46:15;;;;;;;3.83;0.80;;;;;;;40.95;21.09;98242.41;15259716;19;20011;-64
2022/07/20 13:51:20;;;;;;;2.00;0.80;;;;;;;41.09;20.01;98241.94;15276582;19;20014;-62
2022/07/20 13:56:48;;;;;;;2.22;0.77;;;;;;;41.27;19.70;98245.97;15271279;19;20070;-62
2022/07/20 14:02:01;;;;;;;2.92;0.88;;;;;;;41.62;20.25;98238.59;15273655;19;20039;-65
2022/07/20 14:07:06;;;;;;;2.42;0.70;;;;;;;41.74;19.59;98227.13;15277932;19;20082;-64
2022/07/20 14:12:14;;;;;;;2.97;0.80;;;;;;;41.81;19.78;98231.28;15275564;19;20554;-63
2022/07/20 14:17:21;;;;;;;2.42;0.80;;;;;;;41.86;19.41;98212.00;15266668;19;20017;-64
2022/07/20 14:22:26;;;;;;;1.85;0.50;;;;;;;41.91;19.91;98219.34;15273786;19;20033;-64
2022/07/20 14:27:34;;;;;;;4.72;0.90;;;;;;;42.15;19.46;98211.69;15277628;19;20050;-63
2022/07/20 14:32:39;;;;;;;2.20;0.73;;;;;;;42.01;19.86;98213.09;15272297;19;20035;-64
2022/07/20 14:37:44;;;;;;;1.15;0.70;;;;;;;42.43;19.31;98210.53;15277349;19;20027;-64
2022/07/20 14:42:52;;;;;;;4.57;0.80;;;;;;;42.87;19.52;98201.47;15273163;19;20359;-64
2022/07/20 14:47:57;;;;;;;2.73;0.70;;;;;;;43.09;19.07;98199.75;15273538;19;20356;-61
2022/07/20 14:53:04;;;;;;;3.45;0.80;;;;;;;43.21;19.35;98193.06;15268339;19;20297;-63
2022/07/20 14:58:18;;;;;;;5.45;0.90;;;;;;;43.38;18.88;98197.31;15275580;19;20041;-63
2022/07/20 15:03:23;;;;;;;4.23;0.93;;;;;;;43.54;19.26;98193.41;15274448;19;20031;-63
2022/07/20 15:08:28;;;;;;;2.03;0.80;;;;;;;43.69;18.71;98183.88;15282316;19;20243;-64
2022/07/20 15:13:38;;;;;;;2.97;0.95;;;;;;;43.97;18.83;98184.53;15290752;19;20017;-63
2022/07/20 15:18:45;;;;;;;2.50;0.80;;;;;;;43.30;18.33;98184.22;15291050;19;20673;-63
2022/07/20 15:23:50;;;;;;;3.70;0.80;;;;;;;43.12;17.92;98181.16;15275176;19;20010;-64
2022/07/20 15:28:58;;;;;;;2.30;1.00;;;;;;;42.51;18.81;98178.31;15289296;19;20014;-63
2022/07/20 15:34:03;;;;;;;3.60;0.88;;;;;;;42.99;18.83;98172.09;15287853;19;20021;-62
2022/07/20 15:39:08;;;;;;;2.33;0.80;;;;;;;43.22;18.14;98159.84;15287997;19;20042;-63
2022/07/20 15:44:24;;;;;;;5.47;0.90;;;;;;;43.37;18.73;98160.81;15286096;19;20035;-63
2022/07/20 15:49:29;;;;;;;2.58;0.90;;;;;;;43.56;18.80;98157.78;15316192;19;20335;-63
2022/07/20 15:54:34;;;;;;;3.85;0.70;;;;;;;43.48;19.34;98150.41;15273347;19;20010;-63
2022/07/20 15:59:43;;;;;;;2.50;0.93;;;;;;;43.55;19.39;98150.50;15288197;19;20034;-62
2022/07/20 16:04:48;;;;;;;7.35;0.90;;;;;;;43.35;19.86;98146.22;15281684;19;20014;-64
2022/07/20 16:09:53;;;;;;;3.15;0.95;;;;;;;43.43;20.29;98139.44;15285969;19;20115;-63
2022/07/20 16:15:01;;;;;;;3.13;0.93;;;;;;;43.29;20.21;98136.44;15282148;19;20014;-63
2022/07/20 16:20:07;;;;;;;3.83;0.97;;;;;;;43.05;20.25;98115.91;15284220;19;20018;-63
2022/07/20 16:25:14;;;;;;;5.47;1.00;;;;;;;42.72;20.62;98111.84;15274245;19;20046;-63
2022/07/20 16:30:29;;;;;;;4.88;0.85;;;;;;;42.87;20.36;98105.16;15280177;19;20049;-63
2022/07/20 16:35:34;;;;;;;3.90;1.00;;;;;;;42.91;20.60;98100.34;15282066;19;20046;-63
2022/07/20 16:40:40;;;;;;;5.50;0.90;;;;;;;42.81;20.30;98090.50;15285259;19;20386;-63
2022/07/20 16:45:47;;;;;;;2.65;0.80;;;;;;;42.52;20.50;98100.63;15280037;19;20336;-63
2022/07/20 16:50:52;;;;;;;3.22;1.00;;;;;;;42.38;20.55;98089.13;15284533;19;20006;-63
2022/07/20 16:55:58;;;;;;;3.40;0.85;;;;;;;42.46;20.75;98080.34;15279642;19;20018;-62
2022/07/20 17:01:07;;;;;;;2.35;0.88;;;;;;;42.34;20.25;98077.78;15270921;19;20010;-63
2022/07/20 17:06:13;;;;;;;4.30;0.90;;;;;;;42.46;19.20;98069.00;15279648;19;20028;-63
2022/07/20 17:11:18;;;;;;;1.63;0.70;;;;;;;42.55;19.20;98051.75;15281899;19;20026;-63
2022/07/20 17:16:25;;;;;;;1.50;0.70;;;;;;;42.50;17.96;98061.38;15280631;19;20018;-63
2022/07/20 17:21:30;;;;;;;2.00;0.80;;;;;;;42.49;17.85;98064.63;15283044;19;20019;-63
2022/07/20 17:26:35;;;;;;;2.85;0.90;;;;;;;42.44;17.45;98062.94;15278737;19;20014;-63
2022/07/20 17:31:43;;;;;;;3.90;0.90;;;;;;;42.05;19.68;98063.97;15267977;19;20011;-63
2022/07/20 17:36:49;;;;;;;3.40;0.87;;;;;;;41.96;20.51;98057.78;15277439;19;20014;-63
2022/07/20 17:41:56;;;;;;;2.78;0.85;;;;;;;41.59;20.83;98055.53;15279758;19;20275;-63
2022/07/20 17:47:03;;;;;;;4.75;0.82;;;;;;;41.36;21.43;98053.50;15279894;19;20799;-63
2022/07/20 17:52:09;;;;;;;4.43;0.80;;;;;;;41.07;21.84;98058.66;15278468;19;20016;-63
2022/07/20 17:57:14;;;;;;;7.70;0.80;;;;;;;40.64;22.25;98069.91;15279041;19;20042;-63
2022/07/20 18:02:21;;;;;;;10.00;0.90;;;;;;;40.53;22.16;98069.63;15271204;19;20463;-63
2022/07/20 18:07:27;;;;;;;7.68;1.02;;;;;;;40.01;22.58;98073.69;15273344;19;20471;-63
2022/07/20 18:12:32;;;;;;;3.20;0.93;;;;;;;39.68;22.88;98069.25;15276305;19;20026;-63
2022/07/20 18:17:44;;;;;;;6.32;1.00;;;;;;;39.26;23.63;98054.47;15277530;19;20031;-63
2022/07/20 18:22:56;;;;;;;2.15;0.80;;;;;;;38.82;23.94;98054.50;15277246;19;20038;-62
2022/07/20 18:28:01;;;;;;;5.00;0.90;;;;;;;38.43;24.52;98056.94;15277746;19;20014;-63
2022/07/20 18:33:14;;;;;;;3.28;0.82;;;;;;;37.83;24.64;98052.66;15277511;19;20021;-67
2022/07/20 18:38:19;;;;;;;3.38;0.85;;;;;;;37.44;25.24;98061.44;15265815;19;20038;-63
2022/07/20 18:43:25;;;;;;;3.65;0.80;;;;;;;37.02;25.64;98069.97;15282372;19;20467;-63
2022/07/20 18:48:35;;;;;;;2.75;0.85;;;;;;;36.54;26.53;98061.78;15287967;19;20392;-62
2022/07/20 18:53:42;;;;;;;7.15;1.00;;;;;;;36.00;27.22;98059.69;15289482;19;20025;-62
2022/07/20 18:58:47;;;;;;;6.38;0.80;;;;;;;35.59;27.42;98062.03;15292087;19;20038;-61
2022/07/20 19:03:55;;;;;;;4.07;0.75;;;;;;;35.12;28.13;98065.63;15288814;19;20018;-61
2022/07/20 19:09:01;;;;;;;3.45;1.08;;;;;;;34.82;28.32;98061.88;15279284;19;20014;-63
2022/07/20 19:14:06;;;;;;;3.35;0.82;;;;;;;34.47;29.17;98078.66;15287523;19;20018;-63
2022/07/20 19:19:14;;;;;;;2.47;0.70;;;;;;;34.13;29.72;98075.47;15289629;19;20365;-62
2022/07/20 19:24:21;;;;;;;8.13;1.00;;;;;;;33.80;30.08;98073.06;15287644;19;20050;-61
2022/07/20 19:29:27;;;;;;;5.25;1.00;;;;;;;33.55;30.59;98083.00;15289464;19;20542;-62
2022/07/20 19:34:35;;;;;;;3.72;0.70;;;;;;;33.24;31.06;98073.47;15285100;19;20006;-62
2022/07/20 19:39:42;;;;;;;3.47;0.88;;;;;;;32.97;31.25;98071.66;15276667;19;20010;-63
2022/07/20 19:44:47;;;;;;;3.92;0.90;;;;;;;32.70;31.84;98076.19;15283914;19;20010;-62
2022/07/20 19:49:55;;;;;;;3.10;0.80;;;;;;;32.49;31.89;98070.28;15287761;19;20542;-62
2022/07/20 19:55:01;;;;;;;5.75;0.90;;;;;;;32.25;32.30;98072.22;15282326;19;20024;-61
2022/07/20 20:00:08;;;;;;;5.68;0.90;;;;;;;32.05;32.99;98083.75;15286235;19;20339;-60
2022/07/20 20:05:16;;;;;;;4.45;0.90;;;;;;;31.92;33.03;98085.44;15287204;19;20010;-61
2022/07/20 20:10:21;;;;;;;6.53;0.90;;;;;;;31.74;33.95;98090.00;15279096;19;20816;-62
2022/07/20 20:15:27;;;;;;;4.78;0.70;;;;;;;31.57;34.14;98083.06;15278538;19;20366;-62
2022/07/20 20:20:34;;;;;;;5.07;0.88;;;;;;;31.43;36.09;98085.00;15284680;19;20042;-61
2022/07/20 20:25:39;;;;;;;5.55;1.00;;;;;;;31.33;35.74;98099.94;15280090;19;20467;-60
2022/07/20 20:30:44;;;;;;;7.70;0.90;;;;;;;31.21;36.01;98100.44;15283918;19;20018;-61
2022/07/20 20:35:52;;;;;;;3.33;0.90;;;;;;;31.08;36.24;98102.00;15282564;19;20080;-60
2022/07/20 20:40:57;;;;;;;3.95;0.90;;;;;;;30.99;35.72;98107.44;15279807;19;20017;-59
2022/07/20 20:46:05;;;;;;;4.57;0.90;;;;;;;30.92;36.04;98115.34;15265003;19;20494;-61
2022/07/20 20:51:13;;;;;;;2.38;0.82;;;;;;;30.81;36.74;98124.97;15282675;19;20011;-62
2022/07/20 20:56:18;;;;;;;5.88;0.95;;;;;;;30.67;36.47;98134.09;15261078;19;20014;-61
2022/07/20 21:01:26;;;;;;;1.35;0.68;;;;;;;30.59;37.02;98129.22;15281734;19;20015;-61
2022/07/20 21:06:35;;;;;;;6.97;0.85;;;;;;;30.47;37.17;98134.34;15277302;19;20511;-60
2022/07/20 21:11:40;;;;;;;2.53;0.70;;;;;;;30.36;37.02;98123.38;15282131;19;20010;-62
2022/07/20 21:16:45;;;;;;;1.80;0.98;;;;;;;30.27;37.23;98131.56;15267001;19;20015;-58
2022/07/20 21:21:53;;;;;;;2.50;0.90;;;;;;;30.17;38.02;98137.25;15280724;19;20025;-60
2022/07/20 21:26:58;;;;;;;2.42;0.90;;;;;;;30.11;37.47;98146.75;15277910;19;20042;-61
2022/07/20 21:32:04;;;;;;;4.40;0.80;;;;;;;29.96;37.92;98147.78;15278727;19;20014;-58
2022/07/20 21:37:11;;;;;;;1.38;0.90;;;;;;;29.77;38.20;98144.91;15280724;19;20014;-61
2022/07/20 21:42:16;;;;;;;3.17;0.82;;;;;;;29.57;38.66;98154.31;15278221;19;20018;-60
2022/07/20 21:47:21;;;;;;;1.50;0.80;;;;;;;29.43;38.75;98149.44;15271552;19;20018;-61
2022/07/20 21:52:29;;;;;;;3.80;0.98;;;;;;;29.31;38.96;98148.97;15273821;19;20019;-59
2022/07/20 21:57:34;;;;;;;3.35;0.98;;;;;;;29.20;38.90;98140.75;15280354;19;20014;-58
2022/07/20 22:02:39;;;;;;;1.75;0.65;;;;;;;29.10;39.31;98143.59;15276685;19;20045;-60
2022/07/20 22:07:46;;;;;;;3.40;0.80;;;;;;;28.98;39.00;98143.97;15274219;19;20018;-60
2022/07/20 22:12:51;;;;;;;0.88;0.60;;;;;;;28.84;39.61;98132.72;15276596;19;20003;-60
2022/07/20 22:17:57;;;;;;;3.13;0.70;;;;;;;28.77;39.86;98142.47;15276640;19;20384;-60
2022/07/20 22:23:05;;;;;;;2.22;0.70;;;;;;;28.71;39.54;98138.88;15265066;19;20051;-58
2022/07/20 22:28:10;;;;;;;3.65;0.80;;;;;;;28.69;39.21;98150.25;15274092;19;20471;-60
2022/07/20 22:33:15;;;;;;;3.22;1.00;;;;;;;28.66;39.96;98138.91;15276677;19;20484;-60
2022/07/20 22:38:23;;;;;;;4.97;0.90;;;;;;;28.62;40.07;98133.09;15276978;19;20034;-60
2022/07/20 22:43:28;;;;;;;2.47;0.93;;;;;;;28.54;40.42;98166.97;15275858;19;20022;-60
2022/07/20 22:48:33;;;;;;;2.05;0.90;;;;;;;28.50;40.14;98155.63;15275924;19;20046;-58
2022/07/20 22:53:41;;;;;;;2.42;0.70;;;;;;;28.42;40.58;98159.00;15263606;19;20144;-59
2022/07/20 22:58:47;;;;;;;1.35;0.80;;;;;;;28.38;40.73;98160.69;15275036;19;20275;-59
2022/07/20 23:03:53;;;;;;;2.63;1.00;;;;;;;28.30;41.09;98179.53;15275583;19;20015;-61
2022/07/20 23:09:00;;;;;;;1.90;0.80;;;;;;;28.30;40.90;98189.81;15279136;19;20358;-61
2022/07/20 23:14:05;;;;;;;5.45;0.90;;;;;;;27.91;41.98;98245.84;15273626;19;20014;-59
2022/07/20 23:19:10;;;;;;;14.05;2.20;;;;;;;27.61;46.42;98250.31;15276772;19;20019;-60
2022/07/20 23:24:20;;;;;;;16.58;3.00;;;;;;;27.69;54.69;98263.59;15268616;19;20011;-60
2022/07/20 23:29:25;;;;;;;12.75;2.95;;;;;;;27.63;61.26;98271.06;15277911;19;20010;-61
2022/07/20 23:34:30;;;;;;;12.63;3.55;;;;;;;27.46;68.86;98267.75;15287188;19;20010;-62
2022/07/20 23:39:38;;;;;;;28.25;3.20;;;;;;;27.04;81.79;98305.56;15290062;19;20042;-63
2022/07/20 23:44:59;;;;;;;17.60;2.70;;;;;;;26.50;89.20;98337.91;15285162;19;20111;-63
2022/07/20 23:50:05;;;;;;;16.17;2.50;;;;;;;26.08;93.37;98322.97;15289103;19;20027;-63
2022/07/20 23:55:13;;;;;;;11.75;2.35;;;;;;;25.78;92.70;98321.66;15283120;19;20014;-63
